sensor_id;sensor_type;location;lat;lon;timestamp;pressure;altitude;pressure_sealevel;temperature;humidity
47873;BME280;73966;47.438;18.912;2024-02-14T00:01:35;100381.34;;;6.28;59.30
47873;BME280;73966;47.438;18.912;2024-02-14T00:04:06;100376.72;;;6.53;58.58
47873;BME280;73966;47.438;18.912;2024-02-14T00:06:40;100381.66;;;6.40;58.98
47873;BME280;73966;47.438;18.912;2024-02-14T00:09:09;100379.87;;;6.41;58.85
47873;BME280;73966;47.438;18.912;2024-02-14T00:11:39;100391.78;;;6.50;58.55
47873;BME280;73966;47.438;18.912;2024-02-14T00:14:09;100380.38;;;6.49;58.79
47873;BME280;73966;47.438;18.912;2024-02-14T00:16:39;100378.34;;;6.75;58.09
47873;BME280;73966;47.438;18.912;2024-02-14T00:19:09;100387.25;;;6.91;57.79
47873;BME280;73966;47.438;18.912;2024-02-14T00:21:40;100389.25;;;6.67;58.30
47873;BME280;73966;47.438;18.912;2024-02-14T00:24:09;100384.41;;;6.77;58.09
47873;BME280;73966;47.438;18.912;2024-02-14T00:26:51;100385.69;;;6.68;58.35
47873;BME280;73966;47.438;18.912;2024-02-14T00:29:23;100391.78;;;6.69;58.52
47873;BME280;73966;47.438;18.912;2024-02-14T00:31:52;100401.22;;;6.14;59.77
47873;BME280;73966;47.438;18.912;2024-02-14T00:34:23;100393.53;;;6.30;59.37
47873;BME280;73966;47.438;18.912;2024-02-14T00:36:52;100397.06;;;6.29;59.30
47873;BME280;73966;47.438;18.912;2024-02-14T00:39:21;100402.25;;;6.31;59.22
47873;BME280;73966;47.438;18.912;2024-02-14T00:41:51;100401.97;;;6.57;58.52
47873;BME280;73966;47.438;18.912;2024-02-14T00:44:23;100403.56;;;6.41;58.57
47873;BME280;73966;47.438;18.912;2024-02-14T00:46:56;100402.56;;;6.44;58.56
47873;BME280;73966;47.438;18.912;2024-02-14T00:49:27;100405.41;;;6.39;58.82
47873;BME280;73966;47.438;18.912;2024-02-14T00:51:57;100402.69;;;6.22;59.14
47873;BME280;73966;47.438;18.912;2024-02-14T00:54:38;100404.62;;;6.16;59.44
47873;BME280;73966;47.438;18.912;2024-02-14T00:57:07;100410.44;;;5.82;60.37
47873;BME280;73966;47.438;18.912;2024-02-14T00:59:37;100410.69;;;5.98;59.81
47873;BME280;73966;47.438;18.912;2024-02-14T01:02:09;100405.72;;;6.52;58.06
47873;BME280;73966;47.438;18.912;2024-02-14T01:04:38;100409.41;;;6.48;57.87
47873;BME280;73966;47.438;18.912;2024-02-14T01:07:07;100406.00;;;6.25;58.34
47873;BME280;73966;47.438;18.912;2024-02-14T01:09:37;100411.13;;;6.28;58.26
47873;BME280;73966;47.438;18.912;2024-02-14T01:12:09;100402.28;;;6.10;59.07
47873;BME280;73966;47.438;18.912;2024-02-14T01:14:40;100404.97;;;6.09;59.40
47873;BME280;73966;47.438;18.912;2024-02-14T01:17:13;100399.44;;;5.95;59.69
47873;BME280;73966;47.438;18.912;2024-02-14T01:19:43;100400.09;;;5.78;60.18
47873;BME280;73966;47.438;18.912;2024-02-14T01:22:13;100393.91;;;5.58;60.49
47873;BME280;73966;47.438;18.912;2024-02-14T01:25:01;100394.62;;;6.04;59.48
47873;BME280;73966;47.438;18.912;2024-02-14T01:27:31;100401.62;;;6.26;58.65
47873;BME280;73966;47.438;18.912;2024-02-14T01:30:03;100407.00;;;6.23;58.64
47873;BME280;73966;47.438;18.912;2024-02-14T01:32:34;100399.19;;;5.79;59.81
47873;BME280;73966;47.438;18.912;2024-02-14T01:35:04;100398.19;;;5.81;59.78
47873;BME280;73966;47.438;18.912;2024-02-14T01:37:34;100395.25;;;5.89;59.37
47873;BME280;73966;47.438;18.912;2024-02-14T01:40:04;100393.37;;;5.93;58.90
47873;BME280;73966;47.438;18.912;2024-02-14T01:42:48;100398.50;;;6.16;58.05
47873;BME280;73966;47.438;18.912;2024-02-14T01:45:20;100403.41;;;5.83;58.67
47873;BME280;73966;47.438;18.912;2024-02-14T01:48:00;100397.22;;;5.84;58.85
47873;BME280;73966;47.438;18.912;2024-02-14T01:50:30;100401.75;;;6.02;57.65
47873;BME280;73966;47.438;18.912;2024-02-14T01:53:00;100393.78;;;6.04;57.67
47873;BME280;73966;47.438;18.912;2024-02-14T01:55:41;100394.66;;;6.83;55.51
47873;BME280;73966;47.438;18.912;2024-02-14T01:58:10;100394.66;;;6.83;55.51
47873;BME280;73966;47.438;18.912;2024-02-14T02:00:43;100403.56;;;6.00;57.35
47873;BME280;73966;47.438;18.912;2024-02-14T02:03:13;100401.94;;;6.18;56.99
47873;BME280;73966;47.438;18.912;2024-02-14T02:05:43;100397.47;;;6.00;57.57
47873;BME280;73966;47.438;18.912;2024-02-14T02:08:12;100405.19;;;5.82;57.94
47873;BME280;73966;47.438;18.912;2024-02-14T02:10:43;100398.19;;;6.24;56.62
47873;BME280;73966;47.438;18.912;2024-02-14T02:13:33;100412.16;;;6.26;56.27
47873;BME280;73966;47.438;18.912;2024-02-14T02:16:22;100403.06;;;6.12;56.28
47873;BME280;73966;47.438;18.912;2024-02-14T02:19:11;100417.41;;;5.83;56.73
47873;BME280;73966;47.438;18.912;2024-02-14T02:22:18;100415.88;;;6.00;56.39
47873;BME280;73966;47.438;18.912;2024-02-14T02:25:09;100412.06;;;6.27;55.57
47873;BME280;73966;47.438;18.912;2024-02-14T02:27:59;100415.88;;;6.20;55.43
47873;BME280;73966;47.438;18.912;2024-02-14T02:30:33;100413.31;;;6.19;55.40
47873;BME280;73966;47.438;18.912;2024-02-14T02:33:03;100414.88;;;6.43;54.75
47873;BME280;73966;47.438;18.912;2024-02-14T02:35:35;100416.72;;;6.61;54.23
47873;BME280;73966;47.438;18.912;2024-02-14T02:38:12;100421.91;;;6.63;54.41
47873;BME280;73966;47.438;18.912;2024-02-14T02:41:03;100427.25;;;6.61;54.49
47873;BME280;73966;47.438;18.912;2024-02-14T02:43:54;100426.87;;;6.50;54.93
47873;BME280;73966;47.438;18.912;2024-02-14T02:46:49;100428.72;;;6.28;55.24
47873;BME280;73966;47.438;18.912;2024-02-14T02:49:44;100436.19;;;6.37;55.04
47873;BME280;73966;47.438;18.912;2024-02-14T02:52:34;100434.38;;;6.39;54.78
47873;BME280;73966;47.438;18.912;2024-02-14T02:55:23;100425.31;;;6.26;55.26
47873;BME280;73966;47.438;18.912;2024-02-14T02:58:03;100432.16;;;6.30;55.34
47873;BME280;73966;47.438;18.912;2024-02-14T03:00:33;100435.75;;;6.27;55.36
47873;BME280;73966;47.438;18.912;2024-02-14T03:03:18;100445.09;;;6.34;55.30
47873;BME280;73966;47.438;18.912;2024-02-14T03:06:05;100443.38;;;6.33;55.24
47873;BME280;73966;47.438;18.912;2024-02-14T03:08:55;100445.22;;;6.31;55.09
47873;BME280;73966;47.438;18.912;2024-02-14T03:11:46;100455.31;;;6.22;55.39
47873;BME280;73966;47.438;18.912;2024-02-14T03:14:36;100459.50;;;6.26;55.38
47873;BME280;73966;47.438;18.912;2024-02-14T03:17:26;100455.53;;;6.15;55.75
47873;BME280;73966;47.438;18.912;2024-02-14T03:20:10;100464.28;;;6.16;55.75
47873;BME280;73966;47.438;18.912;2024-02-14T03:22:45;100466.31;;;6.09;55.94
47873;BME280;73966;47.438;18.912;2024-02-14T03:25:22;100459.31;;;6.10;55.73
47873;BME280;73966;47.438;18.912;2024-02-14T03:28:00;100462.50;;;5.96;56.07
47873;BME280;73966;47.438;18.912;2024-02-14T03:30:32;100466.59;;;6.03;55.89
47873;BME280;73966;47.438;18.912;2024-02-14T03:33:03;100465.22;;;6.15;55.38
47873;BME280;73966;47.438;18.912;2024-02-14T03:35:33;100469.47;;;6.18;55.50
47873;BME280;73966;47.438;18.912;2024-02-14T03:38:02;100468.47;;;6.22;55.65
47873;BME280;73966;47.438;18.912;2024-02-14T03:40:32;100475.03;;;5.67;57.10
47873;BME280;73966;47.438;18.912;2024-02-14T03:43:01;100476.25;;;5.59;57.62
47873;BME280;73966;47.438;18.912;2024-02-14T03:45:30;100483.22;;;5.60;57.63
47873;BME280;73966;47.438;18.912;2024-02-14T03:48:01;100475.47;;;5.79;57.08
47873;BME280;73966;47.438;18.912;2024-02-14T03:50:31;100487.13;;;5.72;57.45
47873;BME280;73966;47.438;18.912;2024-02-14T03:53:01;100492.44;;;5.48;58.50
47873;BME280;73966;47.438;18.912;2024-02-14T03:55:31;100495.88;;;5.72;57.97
47873;BME280;73966;47.438;18.912;2024-02-14T03:58:00;100498.63;;;5.47;58.74
47873;BME280;73966;47.438;18.912;2024-02-14T04:00:31;100505.31;;;5.54;58.50
47873;BME280;73966;47.438;18.912;2024-02-14T04:03:02;100505.37;;;5.07;59.05
47873;BME280;73966;47.438;18.912;2024-02-14T04:05:34;100513.91;;;4.89;59.35
47873;BME280;73966;47.438;18.912;2024-02-14T04:08:05;100519.72;;;4.74;59.66
47873;BME280;73966;47.438;18.912;2024-02-14T04:10:38;100523.41;;;4.93;58.98
47873;BME280;73966;47.438;18.912;2024-02-14T04:13:09;100533.00;;;4.69;59.65
47873;BME280;73966;47.438;18.912;2024-02-14T04:15:38;100531.91;;;4.75;59.62
47873;BME280;73966;47.438;18.912;2024-02-14T04:18:12;100532.22;;;4.90;59.17
47873;BME280;73966;47.438;18.912;2024-02-14T04:20:46;100536.63;;;5.15;58.33
47873;BME280;73966;47.438;18.912;2024-02-14T04:23:18;100537.16;;;5.00;58.64
47873;BME280;73966;47.438;18.912;2024-02-14T04:25:47;100541.91;;;5.13;58.07
47873;BME280;73966;47.438;18.912;2024-02-14T04:28:17;100549.56;;;5.20;58.06
47873;BME280;73966;47.438;18.912;2024-02-14T04:30:46;100549.50;;;4.98;58.68
47873;BME280;73966;47.438;18.912;2024-02-14T04:33:24;100547.38;;;4.84;59.21
47873;BME280;73966;47.438;18.912;2024-02-14T04:36:01;100549.50;;;4.98;58.94
47873;BME280;73966;47.438;18.912;2024-02-14T04:38:30;100558.56;;;4.89;59.40
47873;BME280;73966;47.438;18.912;2024-02-14T04:40:59;100551.16;;;5.00;58.90
47873;BME280;73966;47.438;18.912;2024-02-14T04:43:29;100553.56;;;4.81;59.58
47873;BME280;73966;47.438;18.912;2024-02-14T04:45:58;100570.88;;;4.87;59.40
47873;BME280;73966;47.438;18.912;2024-02-14T04:48:29;100566.81;;;5.03;58.91
47873;BME280;73966;47.438;18.912;2024-02-14T04:51:05;100563.44;;;5.00;59.05
47873;BME280;73966;47.438;18.912;2024-02-14T04:53:34;100561.38;;;4.83;59.58
47873;BME280;73966;47.438;18.912;2024-02-14T04:56:06;100561.94;;;4.92;59.67
47873;BME280;73966;47.438;18.912;2024-02-14T04:58:35;100576.25;;;4.84;59.86
47873;BME280;73966;47.438;18.912;2024-02-14T05:01:05;100571.56;;;4.67;60.18
47873;BME280;73966;47.438;18.912;2024-02-14T05:03:36;100571.84;;;4.59;60.48
47873;BME280;73966;47.438;18.912;2024-02-14T05:06:06;100572.53;;;4.64;60.39
47873;BME280;73966;47.438;18.912;2024-02-14T05:08:35;100575.44;;;4.55;60.63
47873;BME280;73966;47.438;18.912;2024-02-14T05:11:04;100572.03;;;4.78;60.17
47873;BME280;73966;47.438;18.912;2024-02-14T05:13:35;100575.50;;;4.80;60.00
47873;BME280;73966;47.438;18.912;2024-02-14T05:16:06;100576.69;;;4.72;59.86
47873;BME280;73966;47.438;18.912;2024-02-14T05:18:38;100580.75;;;4.54;60.20
47873;BME280;73966;47.438;18.912;2024-02-14T05:21:11;100576.88;;;4.65;59.87
47873;BME280;73966;47.438;18.912;2024-02-14T05:23:41;100580.09;;;4.74;59.53
47873;BME280;73966;47.438;18.912;2024-02-14T05:26:13;100585.56;;;4.92;59.02
47873;BME280;73966;47.438;18.912;2024-02-14T05:28:44;100586.94;;;4.78;59.71
47873;BME280;73966;47.438;18.912;2024-02-14T05:31:14;100595.81;;;4.75;59.78
47873;BME280;73966;47.438;18.912;2024-02-14T05:33:51;100594.44;;;4.63;59.92
47873;BME280;73966;47.438;18.912;2024-02-14T05:36:21;100598.03;;;4.34;60.98
47873;BME280;73966;47.438;18.912;2024-02-14T05:38:56;100602.72;;;4.25;61.04
47873;BME280;73966;47.438;18.912;2024-02-14T05:41:27;100603.28;;;4.61;59.95
47873;BME280;73966;47.438;18.912;2024-02-14T05:43:58;100609.87;;;4.46;60.07
47873;BME280;73966;47.438;18.912;2024-02-14T05:46:28;100608.84;;;4.24;60.62
47873;BME280;73966;47.438;18.912;2024-02-14T05:48:58;100613.22;;;4.25;60.68
47873;BME280;73966;47.438;18.912;2024-02-14T05:51:28;100612.47;;;4.48;60.06
47873;BME280;73966;47.438;18.912;2024-02-14T05:53:57;100614.16;;;4.22;60.67
47873;BME280;73966;47.438;18.912;2024-02-14T05:56:27;100622.09;;;4.21;60.93
47873;BME280;73966;47.438;18.912;2024-02-14T05:58:56;100619.97;;;4.04;61.56
47873;BME280;73966;47.438;18.912;2024-02-14T06:01:25;100627.59;;;3.83;62.94
47873;BME280;73966;47.438;18.912;2024-02-14T06:03:58;100630.81;;;3.93;62.50
47873;BME280;73966;47.438;18.912;2024-02-14T06:06:30;100631.34;;;4.04;62.40
47873;BME280;73966;47.438;18.912;2024-02-14T06:09:00;100627.72;;;4.35;61.25
47873;BME280;73966;47.438;18.912;2024-02-14T06:11:30;100636.47;;;4.07;61.91
47873;BME280;73966;47.438;18.912;2024-02-14T06:14:00;100634.28;;;4.22;61.49
47873;BME280;73966;47.438;18.912;2024-02-14T06:16:29;100641.47;;;4.15;61.59
47873;BME280;73966;47.438;18.912;2024-02-14T06:19:00;100643.16;;;4.17;61.31
47873;BME280;73966;47.438;18.912;2024-02-14T06:21:36;100640.00;;;4.06;61.76
47873;BME280;73966;47.438;18.912;2024-02-14T06:24:06;100650.13;;;4.18;61.53
47873;BME280;73966;47.438;18.912;2024-02-14T06:26:44;100644.47;;;4.03;61.61
47873;BME280;73966;47.438;18.912;2024-02-14T06:29:13;100646.63;;;4.18;61.21
47873;BME280;73966;47.438;18.912;2024-02-14T06:31:42;100653.75;;;4.14;61.14
47873;BME280;73966;47.438;18.912;2024-02-14T06:34:13;100647.53;;;4.45;60.46
47873;BME280;73966;47.438;18.912;2024-02-14T06:36:49;100641.53;;;4.41;60.52
47873;BME280;73966;47.438;18.912;2024-02-14T06:39:18;100650.87;;;4.50;60.34
47873;BME280;73966;47.438;18.912;2024-02-14T06:41:48;100659.72;;;4.48;60.37
47873;BME280;73966;47.438;18.912;2024-02-14T06:44:17;100656.88;;;4.54;60.06
47873;BME280;73966;47.438;18.912;2024-02-14T06:46:47;100660.50;;;4.50;60.12
47873;BME280;73966;47.438;18.912;2024-02-14T06:49:18;100659.84;;;4.43;60.66
47873;BME280;73966;47.438;18.912;2024-02-14T06:51:50;100671.34;;;4.39;61.29
47873;BME280;73966;47.438;18.912;2024-02-14T06:54:19;100660.13;;;4.88;60.29
47873;BME280;73966;47.438;18.912;2024-02-14T06:56:49;100661.19;;;5.33;59.41
47873;BME280;73966;47.438;18.912;2024-02-14T06:59:18;100669.59;;;5.67;58.51
47873;BME280;73966;47.438;18.912;2024-02-14T07:01:47;100671.47;;;5.87;58.01
47873;BME280;73966;47.438;18.912;2024-02-14T07:04:18;100668.69;;;5.92;57.29
47873;BME280;73966;47.438;18.912;2024-02-14T07:06:55;100670.91;;;6.26;56.27
47873;BME280;73966;47.438;18.912;2024-02-14T07:09:24;100671.09;;;6.44;55.84
47873;BME280;73966;47.438;18.912;2024-02-14T07:11:54;100666.38;;;6.94;54.20
47873;BME280;73966;47.438;18.912;2024-02-14T07:14:24;100668.31;;;7.11;53.94
47873;BME280;73966;47.438;18.912;2024-02-14T07:16:54;100671.75;;;7.13;53.17
47873;BME280;73966;47.438;18.912;2024-02-14T07:19:24;100672.25;;;7.21;53.39
47873;BME280;73966;47.438;18.912;2024-02-14T07:21:55;100674.37;;;7.33;52.97
47873;BME280;73966;47.438;18.912;2024-02-14T07:24:24;100670.87;;;7.33;52.99
47873;BME280;73966;47.438;18.912;2024-02-14T07:26:54;100669.94;;;7.34;53.15
47873;BME280;73966;47.438;18.912;2024-02-14T07:29:23;100670.06;;;7.51;53.00
47873;BME280;73966;47.438;18.912;2024-02-14T07:31:53;100665.06;;;7.64;52.88
47873;BME280;73966;47.438;18.912;2024-02-14T07:34:24;100672.69;;;7.91;52.20
47873;BME280;73966;47.438;18.912;2024-02-14T07:36:57;100678.81;;;7.91;52.45
47873;BME280;73966;47.438;18.912;2024-02-14T07:39:26;100676.91;;;8.13;51.92
47873;BME280;73966;47.438;18.912;2024-02-14T07:41:55;100677.84;;;8.12;51.87
47873;BME280;73966;47.438;18.912;2024-02-14T07:44:26;100677.78;;;8.31;51.56
47873;BME280;73966;47.438;18.912;2024-02-14T07:46:55;100680.66;;;8.65;50.80
47873;BME280;73966;47.438;18.912;2024-02-14T07:49:30;100678.06;;;8.63;50.75
47873;BME280;73966;47.438;18.912;2024-02-14T07:51:59;100674.78;;;8.94;50.35
47873;BME280;73966;47.438;18.912;2024-02-14T07:54:35;100677.69;;;9.07;50.42
47873;BME280;73966;47.438;18.912;2024-02-14T07:57:04;100675.47;;;9.32;49.44
47873;BME280;73966;47.438;18.912;2024-02-14T07:59:34;100669.94;;;9.54;49.15
47873;BME280;73966;47.438;18.912;2024-02-14T08:02:09;100684.22;;;9.68;49.38
47873;BME280;73966;47.438;18.912;2024-02-14T08:04:43;100686.94;;;10.15;48.11
47873;BME280;73966;47.438;18.912;2024-02-14T08:07:12;100674.25;;;10.53;47.48
47873;BME280;73966;47.438;18.912;2024-02-14T08:09:41;100683.31;;;10.95;46.73
47873;BME280;73966;47.438;18.912;2024-02-14T08:14:56;100672.97;;;12.08;43.66
47873;BME280;73966;47.438;18.912;2024-02-14T08:17:25;100665.97;;;12.61;42.58
47873;BME280;73966;47.438;18.912;2024-02-14T08:19:56;100673.25;;;13.12;41.53
47873;BME280;73966;47.438;18.912;2024-02-14T08:22:26;100668.53;;;13.68;39.96
47873;BME280;73966;47.438;18.912;2024-02-14T08:24:55;100671.81;;;13.97;39.04
47873;BME280;73966;47.438;18.912;2024-02-14T08:27:24;100666.34;;;14.48;37.56
47873;BME280;73966;47.438;18.912;2024-02-14T08:29:55;100674.59;;;14.93;36.65
47873;BME280;73966;47.438;18.912;2024-02-14T08:32:24;100662.56;;;15.22;36.36
47873;BME280;73966;47.438;18.912;2024-02-14T08:34:55;100671.84;;;15.63;35.95
47873;BME280;73966;47.438;18.912;2024-02-14T08:37:43;100664.37;;;15.68;35.59
47873;BME280;73966;47.438;18.912;2024-02-14T08:40:15;100664.78;;;15.40;34.87
47873;BME280;73966;47.438;18.912;2024-02-14T08:42:45;100666.56;;;15.17;35.25
47873;BME280;73966;47.438;18.912;2024-02-14T08:45:14;100668.66;;;15.47;34.67
47873;BME280;73966;47.438;18.912;2024-02-14T08:47:43;100665.97;;;15.24;35.69
47873;BME280;73966;47.438;18.912;2024-02-14T08:50:14;100670.34;;;15.25;35.92
47873;BME280;73966;47.438;18.912;2024-02-14T08:52:44;100667.72;;;15.59;36.37
47873;BME280;73966;47.438;18.912;2024-02-14T08:55:13;100662.66;;;15.67;35.65
47873;BME280;73966;47.438;18.912;2024-02-14T08:57:45;100669.94;;;15.99;34.72
47873;BME280;73966;47.438;18.912;2024-02-14T09:00:16;100666.19;;;15.68;35.17
47873;BME280;73966;47.438;18.912;2024-02-14T09:02:48;100667.91;;;15.80;35.25
47873;BME280;73966;47.438;18.912;2024-02-14T09:05:18;100665.19;;;16.14;34.49
47873;BME280;73966;47.438;18.912;2024-02-14T09:07:49;100665.44;;;16.11;34.74
47873;BME280;73966;47.438;18.912;2024-02-14T09:10:21;100665.94;;;16.16;34.24
47873;BME280;73966;47.438;18.912;2024-02-14T09:12:50;100665.72;;;16.08;34.67
47873;BME280;73966;47.438;18.912;2024-02-14T09:15:21;100662.78;;;15.99;34.32
47873;BME280;73966;47.438;18.912;2024-02-14T09:17:50;100663.31;;;16.59;32.67
47873;BME280;73966;47.438;18.912;2024-02-14T09:20:22;100658.63;;;16.84;32.30
47873;BME280;73966;47.438;18.912;2024-02-14T09:22:52;100664.37;;;16.68;32.36
47873;BME280;73966;47.438;18.912;2024-02-14T09:25:21;100668.09;;;16.22;32.54
47873;BME280;73966;47.438;18.912;2024-02-14T09:27:53;100660.66;;;16.48;31.97
47873;BME280;73966;47.438;18.912;2024-02-14T09:30:22;100669.75;;;17.00;32.09
47873;BME280;73966;47.438;18.912;2024-02-14T09:33:11;100660.00;;;16.67;32.44
47873;BME280;73966;47.438;18.912;2024-02-14T09:35:42;100661.94;;;16.65;32.19
47873;BME280;73966;47.438;18.912;2024-02-14T09:38:14;100662.84;;;16.86;31.56
47873;BME280;73966;47.438;18.912;2024-02-14T09:40:43;100663.50;;;17.11;31.12
47873;BME280;73966;47.438;18.912;2024-02-14T09:43:19;100666.06;;;16.80;31.78
47873;BME280;73966;47.438;18.912;2024-02-14T09:45:53;100660.28;;;16.96;31.73
47873;BME280;73966;47.438;18.912;2024-02-14T09:48:23;100661.75;;;16.89;31.75
47873;BME280;73966;47.438;18.912;2024-02-14T09:50:54;100659.09;;;17.10;31.02
47873;BME280;73966;47.438;18.912;2024-02-14T09:53:29;100647.09;;;17.25;32.15
47873;BME280;73966;47.438;18.912;2024-02-14T09:56:00;100650.44;;;17.38;31.26
47873;BME280;73966;47.438;18.912;2024-02-14T09:58:31;100646.16;;;17.36;31.81
47873;BME280;73966;47.438;18.912;2024-02-14T10:01:00;100644.22;;;17.17;31.89
47873;BME280;73966;47.438;18.912;2024-02-14T10:03:30;100646.41;;;17.54;31.48
47873;BME280;73966;47.438;18.912;2024-02-14T10:06:01;100644.19;;;17.38;31.31
47873;BME280;73966;47.438;18.912;2024-02-14T10:08:37;100645.50;;;17.43;31.49
47873;BME280;73966;47.438;18.912;2024-02-14T10:11:19;100638.34;;;17.54;31.49
47873;BME280;73966;47.438;18.912;2024-02-14T10:13:49;100639.56;;;17.91;29.85
47873;BME280;73966;47.438;18.912;2024-02-14T10:16:21;100637.37;;;17.76;30.28
47873;BME280;73966;47.438;18.912;2024-02-14T10:18:53;100633.37;;;17.70;30.25
47873;BME280;73966;47.438;18.912;2024-02-14T10:21:24;100639.41;;;17.83;30.18
47873;BME280;73966;47.438;18.912;2024-02-14T10:23:59;100634.22;;;17.70;29.72
47873;BME280;73966;47.438;18.912;2024-02-14T10:26:29;100631.97;;;17.66;29.98
47873;BME280;73966;47.438;18.912;2024-02-14T10:29:00;100633.44;;;17.28;29.59
47873;BME280;73966;47.438;18.912;2024-02-14T10:31:29;100634.88;;;17.32;31.13
47873;BME280;73966;47.438;18.912;2024-02-14T10:33:58;100630.91;;;17.57;30.84
47873;BME280;73966;47.438;18.912;2024-02-14T10:36:31;100631.53;;;17.40;30.59
47873;BME280;73966;47.438;18.912;2024-02-14T10:39:05;100625.53;;;17.57;30.88
47873;BME280;73966;47.438;18.912;2024-02-14T10:41:36;100628.91;;;17.29;30.65
47873;BME280;73966;47.438;18.912;2024-02-14T10:44:06;100627.41;;;17.36;31.87
47873;BME280;73966;47.438;18.912;2024-02-14T10:46:37;100619.41;;;17.45;32.22
47873;BME280;73966;47.438;18.912;2024-02-14T10:49:10;100620.19;;;17.78;31.14
47873;BME280;73966;47.438;18.912;2024-02-14T10:51:43;100612.00;;;17.80;31.05
47873;BME280;73966;47.438;18.912;2024-02-14T10:54:16;100610.91;;;17.92;31.47
47873;BME280;73966;47.438;18.912;2024-02-14T10:56:49;100615.69;;;17.79;30.96
47873;BME280;73966;47.438;18.912;2024-02-14T10:59:20;100609.63;;;17.56;31.41
47873;BME280;73966;47.438;18.912;2024-02-14T11:01:50;100600.91;;;17.63;31.68
47873;BME280;73966;47.438;18.912;2024-02-14T11:04:20;100607.16;;;17.43;31.83
47873;BME280;73966;47.438;18.912;2024-02-14T11:06:53;100602.31;;;17.37;31.50
47873;BME280;73966;47.438;18.912;2024-02-14T11:09:22;100594.53;;;17.55;31.61
47873;BME280;73966;47.438;18.912;2024-02-14T11:12:03;100600.72;;;17.55;32.53
47873;BME280;73966;47.438;18.912;2024-02-14T11:14:42;100598.94;;;17.65;31.28
47873;BME280;73966;47.438;18.912;2024-02-14T11:17:13;100592.72;;;17.65;32.24
47873;BME280;73966;47.438;18.912;2024-02-14T11:19:42;100588.44;;;17.53;32.66
47873;BME280;73966;47.438;18.912;2024-02-14T11:22:18;100595.56;;;17.94;31.42
47873;BME280;73966;47.438;18.912;2024-02-14T11:24:49;100588.63;;;17.61;32.04
47873;BME280;73966;47.438;18.912;2024-02-14T11:27:19;100583.00;;;17.74;31.72
47873;BME280;73966;47.438;18.912;2024-02-14T11:30:13;100591.31;;;17.91;32.29
47873;BME280;73966;47.438;18.912;2024-02-14T11:32:43;100584.59;;;18.16;31.96
47873;BME280;73966;47.438;18.912;2024-02-14T11:35:13;100578.12;;;17.48;32.61
47873;BME280;73966;47.438;18.912;2024-02-14T11:37:51;100570.22;;;17.77;31.27
47873;BME280;73966;47.438;18.912;2024-02-14T11:40:24;100566.09;;;17.73;31.28
47873;BME280;73966;47.438;18.912;2024-02-14T11:42:53;100567.28;;;16.98;32.23
47873;BME280;73966;47.438;18.912;2024-02-14T11:45:23;100568.63;;;17.34;32.15
47873;BME280;73966;47.438;18.912;2024-02-14T11:47:52;100563.34;;;17.54;32.56
47873;BME280;73966;47.438;18.912;2024-02-14T11:50:22;100556.38;;;17.41;32.03
47873;BME280;73966;47.438;18.912;2024-02-14T11:52:52;100558.81;;;17.85;32.00
47873;BME280;73966;47.438;18.912;2024-02-14T11:55:27;100552.00;;;17.71;32.95
47873;BME280;73966;47.438;18.912;2024-02-14T11:58:06;100558.47;;;17.38;29.89
47873;BME280;73966;47.438;18.912;2024-02-14T12:00:37;100552.19;;;17.49;29.83
47873;BME280;73966;47.438;18.912;2024-02-14T12:03:11;100556.41;;;16.58;31.42
47873;BME280;73966;47.438;18.912;2024-02-14T12:05:41;100555.91;;;16.64;32.13
47873;BME280;73966;47.438;18.912;2024-02-14T12:08:14;100552.53;;;16.51;32.48
47873;BME280;73966;47.438;18.912;2024-02-14T12:10:44;100559.53;;;16.63;32.88
47873;BME280;73966;47.438;18.912;2024-02-14T12:13:16;100564.09;;;16.83;32.56
47873;BME280;73966;47.438;18.912;2024-02-14T12:15:48;100556.19;;;16.50;31.82
47873;BME280;73966;47.438;18.912;2024-02-14T12:18:20;100557.59;;;16.65;31.41
47873;BME280;73966;47.438;18.912;2024-02-14T12:20:50;100557.81;;;15.97;31.73
47873;BME280;73966;47.438;18.912;2024-02-14T12:23:25;100557.81;;;15.97;31.63
47873;BME280;73966;47.438;18.912;2024-02-14T12:26:01;100566.94;;;15.84;33.06
47873;BME280;73966;47.438;18.912;2024-02-14T12:28:31;100552.00;;;15.59;32.30
47873;BME280;73966;47.438;18.912;2024-02-14T12:31:00;100564.75;;;15.44;33.82
47873;BME280;73966;47.438;18.912;2024-02-14T12:33:29;100553.72;;;15.37;33.60
47873;BME280;73966;47.438;18.912;2024-02-14T12:36:01;100551.91;;;15.60;33.85
47873;BME280;73966;47.438;18.912;2024-02-14T12:38:33;100551.06;;;15.37;33.25
47873;BME280;73966;47.438;18.912;2024-02-14T12:41:04;100549.19;;;15.15;34.30
47873;BME280;73966;47.438;18.912;2024-02-14T12:43:33;100546.28;;;15.07;34.09
47873;BME280;73966;47.438;18.912;2024-02-14T12:46:04;100536.59;;;15.17;34.03
47873;BME280;73966;47.438;18.912;2024-02-14T12:48:33;100541.09;;;15.06;34.00
47873;BME280;73966;47.438;18.912;2024-02-14T12:51:02;100539.50;;;15.03;33.66
47873;BME280;73966;47.438;18.912;2024-02-14T12:53:34;100541.53;;;14.99;34.73
47873;BME280;73966;47.438;18.912;2024-02-14T12:56:10;100541.41;;;14.90;35.35
47873;BME280;73966;47.438;18.912;2024-02-14T12:58:42;100533.50;;;14.77;35.32
47873;BME280;73966;47.438;18.912;2024-02-14T13:01:12;100535.09;;;14.91;33.86
47873;BME280;73966;47.438;18.912;2024-02-14T13:03:43;100531.75;;;14.65;35.01
47873;BME280;73966;47.438;18.912;2024-02-14T13:06:13;100536.50;;;14.37;35.73
47873;BME280;73966;47.438;18.912;2024-02-14T13:08:48;100534.12;;;14.21;35.96
47873;BME280;73966;47.438;18.912;2024-02-14T13:11:17;100534.72;;;14.25;36.69
47873;BME280;73966;47.438;18.912;2024-02-14T13:13:47;100532.34;;;13.85;36.56
47873;BME280;73966;47.438;18.912;2024-02-14T13:16:20;100538.37;;;14.00;36.69